sensor_id;sensor_type;location;lat;lon;timestamp;P1;durP1;ratioP1;P2;durP2;ratioP2
64903;SDS011;51401;48.882;12.598;2023-02-18T00:01:20;2.85;;;2.00;;
64903;SDS011;51401;48.882;12.598;2023-02-18T00:03:46;2.28;;;2.08;;
64903;SDS011;51401;48.882;12.598;2023-02-18T00:06:16;2.70;;;2.10;;
64903;SDS011;51401;48.882;12.598;2023-02-18T00:08:44;2.20;;;2.00;;
64903;SDS011;51401;48.882;12.598;2023-02-18T00:11:10;3.45;;;1.80;;
64903;SDS011;51401;48.882;12.598;2023-02-18T00:13:36;2.45;;;1.98;;
64903;SDS011;51401;48.882;12.598;2023-02-18T00:16:02;2.25;;;1.90;;
64903;SDS011;51401;48.882;12.598;2023-02-18T00:18:28;2.45;;;1.85;;
64903;SDS011;51401;48.882;12.598;2023-02-18T00:20:53;2.28;;;1.80;;
64903;SDS011;51401;48.882;12.598;2023-02-18T00:23:18;3.38;;;2.00;;
64903;SDS011;51401;48.882;12.598;2023-02-18T00:25:44;2.38;;;2.00;;
64903;SDS011;51401;48.882;12.598;2023-02-18T00:28:09;2.72;;;2.00;;
64903;SDS011;51401;48.882;12.598;2023-02-18T00:30:38;2.17;;;1.70;;
64903;SDS011;51401;48.882;12.598;2023-02-18T00:35:30;2.73;;;1.80;;
64903;SDS011;51401;48.882;12.598;2023-02-18T00:37:55;3.15;;;2.33;;
64903;SDS011;51401;48.882;12.598;2023-02-18T00:40:20;2.83;;;1.98;;
64903;SDS011;51401;48.882;12.598;2023-02-18T00:42:46;2.78;;;1.98;;
64903;SDS011;51401;48.882;12.598;2023-02-18T00:45:11;2.35;;;1.90;;
64903;SDS011;51401;48.882;12.598;2023-02-18T00:47:36;3.13;;;1.90;;
64903;SDS011;51401;48.882;12.598;2023-02-18T00:50:02;2.30;;;2.00;;
64903;SDS011;51401;48.882;12.598;2023-02-18T00:52:27;2.47;;;1.83;;
64903;SDS011;51401;48.882;12.598;2023-02-18T00:54:52;2.20;;;1.80;;
64903;SDS011;51401;48.882;12.598;2023-02-18T00:57:18;2.75;;;1.80;;
64903;SDS011;51401;48.882;12.598;2023-02-18T00:59:43;1.65;;;1.55;;
64903;SDS011;51401;48.882;12.598;2023-02-18T01:02:08;2.08;;;1.83;;
64903;SDS011;51401;48.882;12.598;2023-02-18T01:04:34;2.20;;;1.60;;
64903;SDS011;51401;48.882;12.598;2023-02-18T01:06:59;3.25;;;1.88;;
64903;SDS011;51401;48.882;12.598;2023-02-18T01:09:24;3.78;;;1.85;;
64903;SDS011;51401;48.882;12.598;2023-02-18T01:11:49;2.25;;;1.70;;
64903;SDS011;51401;48.882;12.598;2023-02-18T01:14:15;2.08;;;1.63;;
64903;SDS011;51401;48.882;12.598;2023-02-18T01:16:41;3.72;;;1.85;;
64903;SDS011;51401;48.882;12.598;2023-02-18T01:19:06;2.30;;;1.98;;
64903;SDS011;51401;48.882;12.598;2023-02-18T01:21:31;2.22;;;1.60;;
64903;SDS011;51401;48.882;12.598;2023-02-18T01:23:56;3.03;;;1.85;;
64903;SDS011;51401;48.882;12.598;2023-02-18T01:26:23;1.95;;;1.70;;
64903;SDS011;51401;48.882;12.598;2023-02-18T01:28:48;1.95;;;1.60;;
64903;SDS011;51401;48.882;12.598;2023-02-18T01:31:14;2.00;;;1.70;;
64903;SDS011;51401;48.882;12.598;2023-02-18T01:33:40;1.90;;;1.50;;
64903;SDS011;51401;48.882;12.598;2023-02-18T01:36:06;2.17;;;1.65;;
64903;SDS011;51401;48.882;12.598;2023-02-18T01:38:31;2.13;;;1.75;;
64903;SDS011;51401;48.882;12.598;2023-02-18T01:40:57;1.85;;;1.55;;
64903;SDS011;51401;48.882;12.598;2023-02-18T01:43:22;2.60;;;1.67;;
64903;SDS011;51401;48.882;12.598;2023-02-18T01:45:59;2.70;;;1.65;;
64903;SDS011;51401;48.882;12.598;2023-02-18T01:51:12;2.17;;;1.65;;
64903;SDS011;51401;48.882;12.598;2023-02-18T01:53:53;2.15;;;1.73;;
64903;SDS011;51401;48.882;12.598;2023-02-18T01:56:27;1.63;;;1.40;;
64903;SDS011;51401;48.882;12.598;2023-02-18T01:58:59;2.40;;;1.60;;
64903;SDS011;51401;48.882;12.598;2023-02-18T02:01:27;1.60;;;1.35;;
64903;SDS011;51401;48.882;12.598;2023-02-18T02:03:53;2.60;;;1.50;;
64903;SDS011;51401;48.882;12.598;2023-02-18T02:06:19;1.73;;;1.50;;
64903;SDS011;51401;48.882;12.598;2023-02-18T02:08:46;1.90;;;1.58;;
64903;SDS011;51401;48.882;12.598;2023-02-18T02:11:22;2.25;;;1.70;;
64903;SDS011;51401;48.882;12.598;2023-02-18T02:14:01;4.05;;;1.55;;
64903;SDS011;51401;48.882;12.598;2023-02-18T02:19:33;3.80;;;2.35;;
64903;SDS011;51401;48.882;12.598;2023-02-18T02:25:56;1.63;;;1.38;;
64903;SDS011;51401;48.882;12.598;2023-02-18T02:43:19;1.75;;;1.40;;
64903;SDS011;51401;48.882;12.598;2023-02-18T02:48:41;1.77;;;1.60;;
64903;SDS011;51401;48.882;12.598;2023-02-18T02:51:15;1.73;;;1.40;;
64903;SDS011;51401;48.882;12.598;2023-02-18T02:53:45;1.95;;;1.40;;
64903;SDS011;51401;48.882;12.598;2023-02-18T02:56:15;2.15;;;1.50;;
64903;SDS011;51401;48.882;12.598;2023-02-18T02:58:43;1.40;;;1.20;;
64903;SDS011;51401;48.882;12.598;2023-02-18T03:04:11;3.22;;;1.40;;
64903;SDS011;51401;48.882;12.598;2023-02-18T03:12:15;1.90;;;1.30;;
64903;SDS011;51401;48.882;12.598;2023-02-18T03:14:55;2.38;;;1.35;;
64903;SDS011;51401;48.882;12.598;2023-02-18T03:17:40;1.88;;;1.17;;
64903;SDS011;51401;48.882;12.598;2023-02-18T03:22:59;1.48;;;1.10;;
64903;SDS011;51401;48.882;12.598;2023-02-18T03:25:30;1.40;;;1.10;;
64903;SDS011;51401;48.882;12.598;2023-02-18T03:27:57;1.88;;;1.15;;
64903;SDS011;51401;48.882;12.598;2023-02-18T03:30:33;2.03;;;1.13;;
64903;SDS011;51401;48.882;12.598;2023-02-18T03:33:06;2.30;;;1.30;;
64903;SDS011;51401;48.882;12.598;2023-02-18T03:35:35;2.13;;;1.23;;
64903;SDS011;51401;48.882;12.598;2023-02-18T03:40:39;1.42;;;1.10;;
64903;SDS011;51401;48.882;12.598;2023-02-18T03:43:04;3.20;;;1.05;;
64903;SDS011;51401;48.882;12.598;2023-02-18T03:45:29;1.15;;;0.90;;
64903;SDS011;51401;48.882;12.598;2023-02-18T03:47:55;2.08;;;1.30;;
64903;SDS011;51401;48.882;12.598;2023-02-18T03:50:20;1.67;;;1.30;;
64903;SDS011;51401;48.882;12.598;2023-02-18T03:52:46;1.48;;;1.08;;
64903;SDS011;51401;48.882;12.598;2023-02-18T03:55:11;1.98;;;1.20;;
64903;SDS011;51401;48.882;12.598;2023-02-18T03:57:37;1.60;;;1.10;;
64903;SDS011;51401;48.882;12.598;2023-02-18T04:00:03;1.15;;;1.05;;
64903;SDS011;51401;48.882;12.598;2023-02-18T04:02:30;1.20;;;1.00;;
64903;SDS011;51401;48.882;12.598;2023-02-18T04:04:55;1.33;;;1.17;;
64903;SDS011;51401;48.882;12.598;2023-02-18T04:07:20;1.08;;;0.98;;
64903;SDS011;51401;48.882;12.598;2023-02-18T04:09:46;1.17;;;0.90;;
64903;SDS011;51401;48.882;12.598;2023-02-18T04:12:11;1.20;;;1.00;;
64903;SDS011;51401;48.882;12.598;2023-02-18T04:14:36;1.77;;;1.05;;
64903;SDS011;51401;48.882;12.598;2023-02-18T04:17:02;1.40;;;1.00;;
64903;SDS011;51401;48.882;12.598;2023-02-18T04:19:27;1.25;;;1.00;;
64903;SDS011;51401;48.882;12.598;2023-02-18T04:21:52;1.65;;;1.10;;
64903;SDS011;51401;48.882;12.598;2023-02-18T04:24:18;1.58;;;0.90;;
64903;SDS011;51401;48.882;12.598;2023-02-18T04:26:43;1.30;;;0.98;;
64903;SDS011;51401;48.882;12.598;2023-02-18T04:29:08;1.10;;;1.00;;
64903;SDS011;51401;48.882;12.598;2023-02-18T04:31:34;1.83;;;1.13;;
64903;SDS011;51401;48.882;12.598;2023-02-18T04:33:59;1.53;;;0.93;;
64903;SDS011;51401;48.882;12.598;2023-02-18T04:36:24;1.10;;;0.80;;
64903;SDS011;51401;48.882;12.598;2023-02-18T04:38:50;1.67;;;0.85;;
64903;SDS011;51401;48.882;12.598;2023-02-18T04:41:15;1.40;;;0.95;;
64903;SDS011;51401;48.882;12.598;2023-02-18T04:43:40;1.45;;;0.90;;
64903;SDS011;51401;48.882;12.598;2023-02-18T04:46:06;1.45;;;0.85;;
64903;SDS011;51401;48.882;12.598;2023-02-18T04:48:31;0.93;;;0.70;;
64903;SDS011;51401;48.882;12.598;2023-02-18T04:50:56;1.60;;;0.90;;
64903;SDS011;51401;48.882;12.598;2023-02-18T04:53:22;1.30;;;0.90;;
64903;SDS011;51401;48.882;12.598;2023-02-18T04:55:50;1.87;;;1.00;;
64903;SDS011;51401;48.882;12.598;2023-02-18T04:58:17;1.17;;;1.02;;
64903;SDS011;51401;48.882;12.598;2023-02-18T05:00:43;1.27;;;1.00;;
64903;SDS011;51401;48.882;12.598;2023-02-18T05:03:08;1.40;;;1.25;;
64903;SDS011;51401;48.882;12.598;2023-02-18T05:05:34;2.35;;;1.13;;
64903;SDS011;51401;48.882;12.598;2023-02-18T05:08:00;1.85;;;1.10;;
64903;SDS011;51401;48.882;12.598;2023-02-18T05:10:25;2.45;;;1.42;;
64903;SDS011;51401;48.882;12.598;2023-02-18T05:12:50;1.02;;;0.90;;
64903;SDS011;51401;48.882;12.598;2023-02-18T05:15:16;1.77;;;1.45;;
64903;SDS011;51401;48.882;12.598;2023-02-18T05:17:41;1.92;;;1.27;;
64903;SDS011;51401;48.882;12.598;2023-02-18T05:20:06;1.58;;;1.25;;
64903;SDS011;51401;48.882;12.598;2023-02-18T05:22:32;1.85;;;1.50;;
64903;SDS011;51401;48.882;12.598;2023-02-18T05:24:57;2.25;;;1.50;;
64903;SDS011;51401;48.882;12.598;2023-02-18T05:27:23;1.33;;;1.23;;
64903;SDS011;51401;48.882;12.598;2023-02-18T05:29:48;1.60;;;1.40;;
64903;SDS011;51401;48.882;12.598;2023-02-18T05:32:13;2.47;;;1.52;;
64903;SDS011;51401;48.882;12.598;2023-02-18T05:34:39;1.73;;;1.50;;
64903;SDS011;51401;48.882;12.598;2023-02-18T05:37:04;3.42;;;1.60;;
64903;SDS011;51401;48.882;12.598;2023-02-18T05:39:29;2.28;;;1.55;;
64903;SDS011;51401;48.882;12.598;2023-02-18T05:41:54;1.87;;;1.77;;
64903;SDS011;51401;48.882;12.598;2023-02-18T05:44:20;2.38;;;1.55;;
64903;SDS011;51401;48.882;12.598;2023-02-18T05:46:54;1.85;;;1.60;;
64903;SDS011;51401;48.882;12.598;2023-02-18T05:49:19;1.98;;;1.55;;
64903;SDS011;51401;48.882;12.598;2023-02-18T05:51:45;2.20;;;1.50;;
64903;SDS011;51401;48.882;12.598;2023-02-18T05:54:10;2.45;;;1.83;;
64903;SDS011;51401;48.882;12.598;2023-02-18T05:56:36;2.22;;;1.80;;
64903;SDS011;51401;48.882;12.598;2023-02-18T05:59:01;2.92;;;1.27;;
64903;SDS011;51401;48.882;12.598;2023-02-18T06:01:26;2.58;;;1.48;;
64903;SDS011;51401;48.882;12.598;2023-02-18T06:03:51;2.70;;;1.90;;
64903;SDS011;51401;48.882;12.598;2023-02-18T06:06:17;1.50;;;1.30;;
64903;SDS011;51401;48.882;12.598;2023-02-18T06:08:42;2.22;;;1.80;;
64903;SDS011;51401;48.882;12.598;2023-02-18T06:11:07;2.47;;;1.90;;
64903;SDS011;51401;48.882;12.598;2023-02-18T06:13:33;1.83;;;1.52;;
64903;SDS011;51401;48.882;12.598;2023-02-18T06:15:58;2.13;;;1.48;;
64903;SDS011;51401;48.882;12.598;2023-02-18T06:18:23;2.45;;;1.55;;
64903;SDS011;51401;48.882;12.598;2023-02-18T06:20:49;2.10;;;1.90;;
64903;SDS011;51401;48.882;12.598;2023-02-18T06:23:14;2.55;;;2.10;;
64903;SDS011;51401;48.882;12.598;2023-02-18T06:25:40;2.95;;;1.73;;
64903;SDS011;51401;48.882;12.598;2023-02-18T06:28:06;2.80;;;1.77;;
64903;SDS011;51401;48.882;12.598;2023-02-18T06:30:31;2.03;;;1.20;;
64903;SDS011;51401;48.882;12.598;2023-02-18T06:32:57;2.28;;;1.40;;
64903;SDS011;51401;48.882;12.598;2023-02-18T06:35:22;2.17;;;1.63;;
64903;SDS011;51401;48.882;12.598;2023-02-18T06:37:47;2.20;;;1.80;;
64903;SDS011;51401;48.882;12.598;2023-02-18T06:40:13;1.75;;;1.40;;
64903;SDS011;51401;48.882;12.598;2023-02-18T06:42:38;2.08;;;1.85;;
64903;SDS011;51401;48.882;12.598;2023-02-18T06:45:04;1.85;;;1.50;;
64903;SDS011;51401;48.882;12.598;2023-02-18T06:47:30;2.25;;;1.50;;
64903;SDS011;51401;48.882;12.598;2023-02-18T06:49:56;1.80;;;1.40;;
64903;SDS011;51401;48.882;12.598;2023-02-18T06:52:21;2.17;;;1.20;;
64903;SDS011;51401;48.882;12.598;2023-02-18T06:54:47;4.97;;;1.55;;
64903;SDS011;51401;48.882;12.598;2023-02-18T06:57:12;2.38;;;1.50;;
64903;SDS011;51401;48.882;12.598;2023-02-18T06:59:37;2.78;;;1.38;;
64903;SDS011;51401;48.882;12.598;2023-02-18T07:02:02;1.87;;;1.60;;
64903;SDS011;51401;48.882;12.598;2023-02-18T07:04:28;2.22;;;1.60;;
64903;SDS011;51401;48.882;12.598;2023-02-18T07:06:53;3.15;;;1.55;;
64903;SDS011;51401;48.882;12.598;2023-02-18T07:09:18;1.58;;;1.17;;
64903;SDS011;51401;48.882;12.598;2023-02-18T07:11:43;2.40;;;1.60;;
64903;SDS011;51401;48.882;12.598;2023-02-18T07:14:09;2.22;;;1.50;;
64903;SDS011;51401;48.882;12.598;2023-02-18T07:16:34;3.05;;;1.33;;
64903;SDS011;51401;48.882;12.598;2023-02-18T07:18:59;2.10;;;1.35;;
64903;SDS011;51401;48.882;12.598;2023-02-18T07:21:24;1.52;;;1.35;;
64903;SDS011;51401;48.882;12.598;2023-02-18T07:23:50;2.25;;;1.65;;
64903;SDS011;51401;48.882;12.598;2023-02-18T07:26:15;2.85;;;1.60;;
64903;SDS011;51401;48.882;12.598;2023-02-18T07:28:41;2.65;;;1.67;;
64903;SDS011;51401;48.882;12.598;2023-02-18T07:31:07;2.08;;;1.25;;
64903;SDS011;51401;48.882;12.598;2023-02-18T07:33:32;2.05;;;1.40;;
64903;SDS011;51401;48.882;12.598;2023-02-18T07:35:58;2.47;;;1.75;;
64903;SDS011;51401;48.882;12.598;2023-02-18T07:38:25;1.88;;;1.33;;
64903;SDS011;51401;48.882;12.598;2023-02-18T07:40:52;1.98;;;1.35;;
64903;SDS011;51401;48.882;12.598;2023-02-18T07:43:18;2.15;;;1.60;;
64903;SDS011;51401;48.882;12.598;2023-02-18T07:45:44;2.45;;;1.77;;
64903;SDS011;51401;48.882;12.598;2023-02-18T07:48:09;1.88;;;1.48;;
64903;SDS011;51401;48.882;12.598;2023-02-18T07:50:34;1.58;;;1.33;;
64903;SDS011;51401;48.882;12.598;2023-02-18T07:53:02;1.88;;;1.67;;
64903;SDS011;51401;48.882;12.598;2023-02-18T07:55:28;1.75;;;1.25;;
64903;SDS011;51401;48.882;12.598;2023-02-18T07:58:13;1.63;;;1.25;;
64903;SDS011;51401;48.882;12.598;2023-02-18T08:00:39;3.45;;;1.77;;
64903;SDS011;51401;48.882;12.598;2023-02-18T08:03:04;2.63;;;1.80;;
64903;SDS011;51401;48.882;12.598;2023-02-18T08:05:30;2.47;;;2.03;;
64903;SDS011;51401;48.882;12.598;2023-02-18T08:07:55;3.95;;;1.75;;
64903;SDS011;51401;48.882;12.598;2023-02-18T08:10:20;2.42;;;1.70;;
64903;SDS011;51401;48.882;12.598;2023-02-18T08:12:46;1.63;;;1.40;;
64903;SDS011;51401;48.882;12.598;2023-02-18T08:15:11;2.25;;;1.58;;
64903;SDS011;51401;48.882;12.598;2023-02-18T08:17:37;2.17;;;1.60;;
64903;SDS011;51401;48.882;12.598;2023-02-18T08:20:02;1.92;;;1.20;;
64903;SDS011;51401;48.882;12.598;2023-02-18T08:22:28;2.40;;;1.60;;
64903;SDS011;51401;48.882;12.598;2023-02-18T08:24:54;2.75;;;1.90;;
64903;SDS011;51401;48.882;12.598;2023-02-18T08:27:20;2.70;;;1.98;;
64903;SDS011;51401;48.882;12.598;2023-02-18T08:29:45;2.05;;;1.60;;
64903;SDS011;51401;48.882;12.598;2023-02-18T08:32:11;2.55;;;1.80;;
64903;SDS011;51401;48.882;12.598;2023-02-18T08:34:37;2.35;;;1.50;;
64903;SDS011;51401;48.882;12.598;2023-02-18T08:37:02;2.17;;;1.60;;
64903;SDS011;51401;48.882;12.598;2023-02-18T08:39:28;1.85;;;1.50;;
64903;SDS011;51401;48.882;12.598;2023-02-18T08:41:58;3.83;;;1.73;;
64903;SDS011;51401;48.882;12.598;2023-02-18T08:44:23;2.63;;;1.67;;
64903;SDS011;51401;48.882;12.598;2023-02-18T08:46:48;1.93;;;1.43;;
64903;SDS011;51401;48.882;12.598;2023-02-18T08:49:14;2.70;;;1.95;;
64903;SDS011;51401;48.882;12.598;2023-02-18T08:51:40;2.08;;;1.42;;
64903;SDS011;51401;48.882;12.598;2023-02-18T08:54:05;4.18;;;1.50;;
64903;SDS011;51401;48.882;12.598;2023-02-18T08:56:31;2.55;;;1.60;;
64903;SDS011;51401;48.882;12.598;2023-02-18T08:58:57;1.98;;;1.45;;
64903;SDS011;51401;48.882;12.598;2023-02-18T09:01:23;2.63;;;1.70;;
64903;SDS011;51401;48.882;12.598;2023-02-18T09:03:48;2.53;;;1.60;;
64903;SDS011;51401;48.882;12.598;2023-02-18T09:06:13;1.73;;;1.10;;
64903;SDS011;51401;48.882;12.598;2023-02-18T09:08:39;2.22;;;1.58;;
64903;SDS011;51401;48.882;12.598;2023-02-18T09:11:04;3.03;;;1.58;;
64903;SDS011;51401;48.882;12.598;2023-02-18T09:13:30;1.83;;;1.30;;
64903;SDS011;51401;48.882;12.598;2023-02-18T09:16:01;2.08;;;1.48;;
64903;SDS011;51401;48.882;12.598;2023-02-18T09:18:28;2.00;;;1.50;;
64903;SDS011;51401;48.882;12.598;2023-02-18T09:20:57;2.38;;;1.60;;
64903;SDS011;51401;48.882;12.598;2023-02-18T09:23:26;1.90;;;1.40;;
64903;SDS011;51401;48.882;12.598;2023-02-18T09:25:53;2.58;;;1.80;;
64903;SDS011;51401;48.882;12.598;2023-02-18T09:28:18;1.92;;;1.52;;
64903;SDS011;51401;48.882;12.598;2023-02-18T09:30:43;3.55;;;2.00;;
64903;SDS011;51401;48.882;12.598;2023-02-18T09:33:08;1.70;;;1.30;;
64903;SDS011;51401;48.882;12.598;2023-02-18T09:35:37;3.92;;;2.53;;
64903;SDS011;51401;48.882;12.598;2023-02-18T09:38:03;2.45;;;1.50;;
64903;SDS011;51401;48.882;12.598;2023-02-18T09:40:30;1.60;;;1.15;;
64903;SDS011;51401;48.882;12.598;2023-02-18T09:45:24;1.63;;;1.23;;
64903;SDS011;51401;48.882;12.598;2023-02-18T09:47:50;1.45;;;1.20;;
64903;SDS011;51401;48.882;12.598;2023-02-18T09:50:18;1.65;;;1.38;;
64903;SDS011;51401;48.882;12.598;2023-02-18T09:52:46;1.83;;;1.42;;
64903;SDS011;51401;48.882;12.598;2023-02-18T09:57:44;3.40;;;1.73;;
64903;SDS011;51401;48.882;12.598;2023-02-18T10:02:54;2.88;;;1.30;;
64903;SDS011;51401;48.882;12.598;2023-02-18T10:05:22;2.00;;;1.50;;
64903;SDS011;51401;48.882;12.598;2023-02-18T10:07:49;3.15;;;1.52;;
64903;SDS011;51401;48.882;12.598;2023-02-18T10:10:20;1.92;;;1.27;;
64903;SDS011;51401;48.882;12.598;2023-02-18T10:12:51;1.65;;;1.27;;
64903;SDS011;51401;48.882;12.598;2023-02-18T10:15:21;3.17;;;1.50;;
64903;SDS011;51401;48.882;12.598;2023-02-18T10:17:49;2.25;;;1.48;;
64903;SDS011;51401;48.882;12.598;2023-02-18T10:20:16;2.65;;;1.70;;
64903;SDS011;51401;48.882;12.598;2023-02-18T10:22:46;2.30;;;1.42;;
64903;SDS011;51401;48.882;12.598;2023-02-18T10:25:18;1.98;;;1.17;;
64903;SDS011;51401;48.882;12.598;2023-02-18T10:27:45;2.35;;;1.33;;
64903;SDS011;51401;48.882;12.598;2023-02-18T10:33:00;1.60;;;1.30;;
64903;SDS011;51401;48.882;12.598;2023-02-18T10:39:31;1.92;;;1.27;;
64903;SDS011;51401;48.882;12.598;2023-02-18T10:52:16;1.77;;;1.58;;
64903;SDS011;51401;48.882;12.598;2023-02-18T10:57:23;1.58;;;1.20;;
64903;SDS011;51401;48.882;12.598;2023-02-18T11:02:36;2.60;;;1.48;;
64903;SDS011;51401;48.882;12.598;2023-02-18T11:05:15;3.55;;;2.38;;
64903;SDS011;51401;48.882;12.598;2023-02-18T11:07:45;2.35;;;1.50;;
64903;SDS011;51401;48.882;12.598;2023-02-18T11:10:31;1.77;;;1.38;;
64903;SDS011;51401;48.882;12.598;2023-02-18T11:13:00;3.15;;;1.38;;
64903;SDS011;51401;48.882;12.598;2023-02-18T11:15:28;2.78;;;1.20;;
64903;SDS011;51401;48.882;12.598;2023-02-18T11:17:55;1.77;;;1.30;;
64903;SDS011;51401;48.882;12.598;2023-02-18T11:20:35;1.40;;;1.00;;
64903;SDS011;51401;48.882;12.598;2023-02-18T11:25:31;1.75;;;1.30;;
64903;SDS011;51401;48.882;12.598;2023-02-18T11:28:02;2.92;;;1.33;;
64903;SDS011;51401;48.882;12.598;2023-02-18T11:30:34;1.83;;;1.40;;
64903;SDS011;51401;48.882;12.598;2023-02-18T11:33:05;1.25;;;1.15;;
64903;SDS011;51401;48.882;12.598;2023-02-18T11:35:34;1.40;;;1.13;;
64903;SDS011;51401;48.882;12.598;2023-02-18T11:38:01;2.10;;;1.25;;
64903;SDS011;51401;48.882;12.598;2023-02-18T11:40:30;2.85;;;1.38;;
64903;SDS011;51401;48.882;12.598;2023-02-18T11:43:10;1.73;;;1.30;;
64903;SDS011;51401;48.882;12.598;2023-02-18T11:45:38;2.25;;;1.60;;
64903;SDS011;51401;48.882;12.598;2023-02-18T11:48:17;2.90;;;1.20;;
64903;SDS011;51401;48.882;12.598;2023-02-18T11:50:49;1.70;;;1.42;;
64903;SDS011;51401;48.882;12.598;2023-02-18T11:55:59;3.22;;;1.65;;
64903;SDS011;51401;48.882;12.598;2023-02-18T11:58:27;2.83;;;1.58;;
64903;SDS011;51401;48.882;12.598;2023-02-18T12:06:36;2.28;;;1.30;;
64903;SDS011;51401;48.882;12.598;2023-02-18T12:09:37;1.63;;;1.05;;
64903;SDS011;51401;48.882;12.598;2023-02-18T12:12:10;1.63;;;1.00;;
64903;SDS011;51401;48.882;12.598;2023-02-18T12:14:40;1.58;;;1.20;;
64903;SDS011;51401;48.882;12.598;2023-02-18T12:17:50;1.30;;;1.05;;
64903;SDS011;51401;48.882;12.598;2023-02-18T12:20:06;1.27;;;1.10;;
64903;SDS011;51401;48.882;12.598;2023-02-18T12:25:54;1.70;;;1.30;;
64903;SDS011;51401;48.882;12.598;2023-02-18T12:31:49;1.92;;;1.08;;
64903;SDS011;51401;48.882;12.598;2023-02-18T12:53:53;2.30;;;1.35;;
64903;SDS011;51401;48.882;12.598;2023-02-18T13:05:06;1.98;;;1.00;;
64903;SDS011;51401;48.882;12.598;2023-02-18T13:13:15;1.40;;;1.00;;
64903;SDS011;51401;48.882;12.598;2023-02-18T13:18:33;1.75;;;1.30;;
64903;SDS011;51401;48.882;12.598;2023-02-18T13:21:03;2.72;;;1.10;;
64903;SDS011;51401;48.882;12.598;2023-02-18T13:25:59;2.20;;;1.30;;
64903;SDS011;51401;48.882;12.598;2023-02-18T13:31:17;1.80;;;1.23;;
64903;SDS011;51401;48.882;12.598;2023-02-18T13:39:12;1.58;;;1.27;;
64903;SDS011;51401;48.882;12.598;2023-02-18T13:41:44;1.30;;;1.10;;
64903;SDS011;51401;48.882;12.598;2023-02-18T13:46:48;1.20;;;1.10;;
64903;SDS011;51401;48.882;12.598;2023-02-18T13:49:22;1.88;;;1.20;;
64903;SDS011;51401;48.882;12.598;2023-02-18T13:51:49;2.00;;;1.25;;
64903;SDS011;51401;48.882;12.598;2023-02-18T13:54:23;2.10;;;1.33;;
64903;SDS011;51401;48.882;12.598;2023-02-18T13:59:22;1.35;;;1.10;;
64903;SDS011;51401;48.882;12.598;2023-02-18T14:01:54;1.58;;;1.20;;
64903;SDS011;51401;48.882;12.598;2023-02-18T14:04:34;1.30;;;1.00;;
64903;SDS011;51401;48.882;12.598;2023-02-18T14:09:41;1.23;;;1.02;;
64903;SDS011;51401;48.882;12.598;2023-02-18T14:12:34;2.13;;;1.10;;
64903;SDS011;51401;48.882;12.598;2023-02-18T14:25:53;2.25;;;1.95;;
64903;SDS011;51401;48.882;12.598;2023-02-18T14:31:48;1.48;;;1.10;;
64903;SDS011;51401;48.882;12.598;2023-02-18T14:50:40;1.55;;;1.10;;
64903;SDS011;51401;48.882;12.598;2023-02-18T14:53:10;1.80;;;1.15;;
64903;SDS011;51401;48.882;12.598;2023-02-18T14:55:42;3.20;;;1.30;;
64903;SDS011;51401;48.882;12.598;2023-02-18T15:00:55;2.55;;;1.05;;
64903;SDS011;51401;48.882;12.598;2023-02-18T15:03:21;1.45;;;1.20;;
64903;SDS011;51401;48.882;12.598;2023-02-18T15:05:47;1.15;;;0.90;;
64903;SDS011;51401;48.882;12.598;2023-02-18T15:08:17;1.80;;;1.00;;
64903;SDS011;51401;48.882;12.598;2023-02-18T15:10:57;1.45;;;1.00;;
64903;SDS011;51401;48.882;12.598;2023-02-18T15:15:55;0.93;;;0.82;;
64903;SDS011;51401;48.882;12.598;2023-02-18T15:20:55;0.93;;;0.80;;
64903;SDS011;51401;48.882;12.598;2023-02-18T15:23:21;2.38;;;1.20;;
64903;SDS011;51401;48.882;12.598;2023-02-18T15:25:49;1.48;;;1.00;;
64903;SDS011;51401;48.882;12.598;2023-02-18T15:28:20;2.42;;;1.13;;
64903;SDS011;51401;48.882;12.598;2023-02-18T15:30:57;2.87;;;1.10;;
64903;SDS011;51401;48.882;12.598;2023-02-18T15:33:23;1.20;;;1.10;;
64903;SDS011;51401;48.882;12.598;2023-02-18T15:35:49;1.75;;;1.17;;
64903;SDS011;51401;48.882;12.598;2023-02-18T15:38:15;1.90;;;1.10;;
64903;SDS011;51401;48.882;12.598;2023-02-18T15:40:42;1.13;;;1.02;;
64903;SDS011;51401;48.882;12.598;2023-02-18T15:43:12;1.23;;;0.95;;
64903;SDS011;51401;48.882;12.598;2023-02-18T15:45:43;1.92;;;1.05;;
64903;SDS011;51401;48.882;12.598;2023-02-18T15:48:30;2.03;;;1.15;;
64903;SDS011;51401;48.882;12.598;2023-02-18T15:51:04;1.60;;;1.30;;
64903;SDS011;51401;48.882;12.598;2023-02-18T15:53:35;1.67;;;1.02;;
64903;SDS011;51401;48.882;12.598;2023-02-18T15:56:05;1.60;;;1.15;;
64903;SDS011;51401;48.882;12.598;2023-02-18T15:58:33;1.80;;;1.20;;
64903;SDS011;51401;48.882;12.598;2023-02-18T16:01:00;2.20;;;1.25;;
64903;SDS011;51401;48.882;12.598;2023-02-18T16:03:31;1.20;;;1.10;;
64903;SDS011;51401;48.882;12.598;2023-02-18T16:06:07;1.75;;;1.27;;
64903;SDS011;51401;48.882;12.598;2023-02-18T16:08:36;1.58;;;1.15;;
64903;SDS011;51401;48.882;12.598;2023-02-18T16:11:11;1.83;;;1.30;;
64903;SDS011;51401;48.882;12.598;2023-02-18T16:13:43;1.77;;;1.20;;
64903;SDS011;51401;48.882;12.598;2023-02-18T16:16:21;2.90;;;1.33;;
64903;SDS011;51401;48.882;12.598;2023-02-18T16:18:57;1.77;;;1.48;;
64903;SDS011;51401;48.882;12.598;2023-02-18T16:21:24;2.28;;;1.60;;
64903;SDS011;51401;48.882;12.598;2023-02-18T16:23:58;2.40;;;1.52;;
64903;SDS011;51401;48.882;12.598;2023-02-18T16:26:39;1.85;;;1.30;;
64903;SDS011;51401;48.882;12.598;2023-02-18T16:29:14;1.90;;;1.42;;
64903;SDS011;51401;48.882;12.598;2023-02-18T16:31:47;2.33;;;1.20;;
64903;SDS011;51401;48.882;12.598;2023-02-18T16:34:13;1.35;;;1.13;;
64903;SDS011;51401;48.882;12.598;2023-02-18T16:36:38;1.20;;;1.08;;
64903;SDS011;51401;48.882;12.598;2023-02-18T16:39:23;1.90;;;1.60;;
64903;SDS011;51401;48.882;12.598;2023-02-18T16:41:49;2.33;;;1.52;;
64903;SDS011;51401;48.882;12.598;2023-02-18T16:44:14;2.77;;;1.43;;
64903;SDS011;51401;48.882;12.598;2023-02-18T16:46:40;2.53;;;1.85;;
64903;SDS011;51401;48.882;12.598;2023-02-18T16:49:07;2.00;;;1.80;;
64903;SDS011;51401;48.882;12.598;2023-02-18T16:51:37;3.35;;;2.20;;
64903;SDS011;51401;48.882;12.598;2023-02-18T16:54:03;3.42;;;2.28;;
64903;SDS011;51401;48.882;12.598;2023-02-18T16:56:29;3.85;;;2.28;;
64903;SDS011;51401;48.882;12.598;2023-02-18T16:58:57;2.97;;;1.65;;
64903;SDS011;51401;48.882;12.598;2023-02-18T17:01:24;2.67;;;1.90;;
64903;SDS011;51401;48.882;12.598;2023-02-18T17:03:53;3.53;;;1.77;;
64903;SDS011;51401;48.882;12.598;2023-02-18T17:06:18;2.10;;;1.83;;
64903;SDS011;51401;48.882;12.598;2023-02-18T17:08:44;1.85;;;1.52;;
64903;SDS011;51401;48.882;12.598;2023-02-18T17:11:32;2.67;;;1.75;;
64903;SDS011;51401;48.882;12.598;2023-02-18T17:13:57;2.88;;;2.28;;
64903;SDS011;51401;48.882;12.598;2023-02-18T17:16:23;3.55;;;1.80;;
64903;SDS011;51401;48.882;12.598;2023-02-18T17:18:49;3.13;;;1.90;;
64903;SDS011;51401;48.882;12.598;2023-02-18T17:21:18;4.05;;;1.83;;
64903;SDS011;51401;48.882;12.598;2023-02-18T17:23:45;3.17;;;1.83;;
64903;SDS011;51401;48.882;12.598;2023-02-18T17:26:16;1.67;;;1.35;;
64903;SDS011;51401;48.882;12.598;2023-02-18T17:28:44;2.92;;;1.65;;
64903;SDS011;51401;48.882;12.598;2023-02-18T17:31:14;3.10;;;2.20;;
64903;SDS011;51401;48.882;12.598;2023-02-18T17:33:55;2.22;;;1.55;;
64903;SDS011;51401;48.882;12.598;2023-02-18T17:36:23;2.53;;;2.10;;
64903;SDS011;51401;48.882;12.598;2023-02-18T17:38:49;2.70;;;2.20;;
64903;SDS011;51401;48.882;12.598;2023-02-18T17:41:15;1.90;;;1.60;;
64903;SDS011;51401;48.882;12.598;2023-02-18T17:43:41;2.97;;;1.80;;